createdAt,value
2023-04-18T00:00:38.601Z,20.00
2023-04-18T00:03:05.269Z,25.40
2023-04-18T00:07:57.970Z,19.33
2023-04-18T00:10:24.443Z,22.35
2023-04-18T00:12:51.391Z,17.50
2023-04-18T00:15:18.388Z,21.30
2023-04-18T00:17:44.774Z,20.77
2023-04-18T00:20:12.523Z,18.58
2023-04-18T00:22:42.531Z,17.15
2023-04-18T00:25:10.353Z,14.60
2023-04-18T00:27:37.991Z,14.07
2023-04-18T00:30:05.074Z,20.60
2023-04-18T00:32:31.765Z,14.05
2023-04-18T00:34:58.969Z,11.13
2023-04-18T00:37:25.302Z,13.60
2023-04-18T00:39:53.854Z,14.57
2023-04-18T00:42:21.734Z,13.93
2023-04-18T00:44:48.574Z,16.95
2023-04-18T00:47:16.783Z,16.25
2023-04-18T00:49:46.190Z,15.30
2023-04-18T00:52:12.548Z,12.60
2023-04-18T00:54:41.467Z,14.73
2023-04-18T00:57:07.926Z,11.40
2023-04-18T00:59:35.375Z,14.65
2023-04-18T01:02:05.095Z,11.57
2023-04-18T01:04:33.572Z,12.90
2023-04-18T01:09:28.685Z,14.98
2023-04-18T01:11:55.195Z,11.18
2023-04-18T01:14:21.810Z,12.80
2023-04-18T01:16:50.913Z,11.20
2023-04-18T01:19:18.816Z,13.05
2023-04-18T01:21:45.397Z,12.30
2023-04-18T01:24:14.685Z,12.65
2023-04-18T01:26:43.616Z,12.32
2023-04-18T01:29:10.273Z,13.85
2023-04-18T01:31:37.540Z,11.82
2023-04-18T01:34:04.750Z,12.18
2023-04-18T01:36:31.876Z,13.75
2023-04-18T01:39:01.039Z,10.73
2023-04-18T01:41:32.228Z,11.20
2023-04-18T01:43:59.129Z,13.07
2023-04-18T01:46:26.122Z,11.98
2023-04-18T01:48:53.432Z,11.02
2023-04-18T01:51:20.625Z,10.73
2023-04-18T01:53:46.959Z,10.85
2023-04-18T01:56:13.381Z,11.35
2023-04-18T01:58:41.504Z,10.48
2023-04-18T02:01:08.090Z,13.05
2023-04-18T02:03:34.861Z,10.98
2023-04-18T02:06:01.835Z,10.40
2023-04-18T02:10:54.415Z,11.02
2023-04-18T02:13:20.812Z,14.23
2023-04-18T02:15:47.177Z,13.32
2023-04-18T02:18:14.932Z,11.10
2023-04-18T02:23:07.584Z,12.60
2023-04-18T02:25:33.921Z,8.40
2023-04-18T02:28:00.985Z,12.30
2023-04-18T02:30:30.635Z,12.98
2023-04-18T02:32:57.265Z,11.50
2023-04-18T02:35:24.005Z,11.30
2023-04-18T02:37:50.360Z,12.48
2023-04-18T02:40:17.302Z,11.80
2023-04-18T02:42:43.594Z,10.48
2023-04-18T02:45:13.787Z,11.82
2023-04-18T02:47:51.782Z,12.60
2023-04-18T02:50:20.531Z,13.30
2023-04-18T02:52:46.847Z,11.85
2023-04-18T02:55:13.422Z,11.63
2023-04-18T02:57:42.551Z,11.25
2023-04-18T03:00:37.136Z,13.63
2023-04-18T03:03:22.455Z,12.95
2023-04-18T03:06:10.545Z,12.48
2023-04-18T03:08:37.458Z,11.55
2023-04-18T03:11:04.407Z,10.93
2023-04-18T03:13:30.861Z,12.73
2023-04-18T03:15:58.077Z,15.18
2023-04-18T03:18:25.979Z,11.48
2023-04-18T03:20:56.308Z,16.10
2023-04-18T03:23:22.832Z,11.30
2023-04-18T03:25:49.217Z,11.10
2023-04-18T03:28:15.835Z,12.10
2023-04-18T03:30:42.854Z,14.35
2023-04-18T03:33:09.921Z,13.95
2023-04-18T03:35:36.377Z,13.73
2023-04-18T03:38:02.769Z,11.75
2023-04-18T03:40:33.040Z,13.35
2023-04-18T03:43:06.089Z,13.75
2023-04-18T03:45:32.422Z,12.40
2023-04-18T03:50:26.250Z,11.88
2023-04-18T03:52:54.820Z,13.15
2023-04-18T03:55:21.785Z,13.10
2023-04-18T03:57:48.368Z,11.52
2023-04-18T04:00:22.873Z,15.02
2023-04-18T04:02:59.055Z,12.77
2023-04-18T04:05:25.645Z,13.13
2023-04-18T04:07:52.115Z,16.85
2023-04-18T04:10:18.512Z,12.10
2023-04-18T04:12:45.167Z,13.35
2023-04-18T04:15:11.858Z,13.80
2023-04-18T04:17:44.617Z,15.02
2023-04-18T04:20:12.146Z,14.90
2023-04-18T04:22:38.757Z,14.00
2023-04-18T04:25:05.351Z,12.82
2023-04-18T04:27:38.856Z,13.68
2023-04-18T04:30:09.554Z,12.85
2023-04-18T04:32:38.926Z,15.27
2023-04-18T04:35:06.186Z,14.77
2023-04-18T04:37:33.442Z,14.55
2023-04-18T04:40:10.499Z,13.93
2023-04-18T04:42:54.125Z,14.57
2023-04-18T04:45:26.629Z,14.00
2023-04-18T04:47:53.242Z,14.70
2023-04-18T04:50:20.569Z,15.07
2023-04-18T04:52:46.945Z,16.50
2023-04-18T04:55:14.007Z,17.90
2023-04-18T04:57:41.885Z,15.23
2023-04-18T05:00:31.860Z,15.13
2023-04-18T05:02:58.416Z,14.88
2023-04-18T05:05:26.236Z,15.00
2023-04-18T05:07:52.632Z,13.88
2023-04-18T05:10:19.107Z,17.13
2023-04-18T05:12:45.619Z,17.35
2023-04-18T05:15:12.669Z,16.65
2023-04-18T05:17:38.989Z,16.55
2023-04-18T05:20:05.764Z,18.15
2023-04-18T05:22:32.282Z,15.38
2023-04-18T05:24:58.780Z,13.85
2023-04-18T05:27:27.169Z,12.95
2023-04-18T05:29:53.594Z,18.15
2023-04-18T05:32:19.996Z,16.50
2023-04-18T05:34:46.907Z,18.17
2023-04-18T05:37:13.224Z,14.18
2023-04-18T05:39:39.825Z,13.35
2023-04-18T05:42:06.206Z,14.85
2023-04-18T05:44:32.520Z,13.68
2023-04-18T05:46:58.888Z,14.98
2023-04-18T05:49:25.257Z,14.73
2023-04-18T05:51:52.900Z,14.73
2023-04-18T05:54:21.452Z,14.63
2023-04-18T05:56:48.161Z,15.07
2023-04-18T05:59:14.579Z,17.30
2023-04-18T06:01:40.958Z,17.00
2023-04-18T06:04:08.569Z,14.23
2023-04-18T06:06:35.623Z,14.73
2023-04-18T06:09:02.001Z,13.52
2023-04-18T06:11:28.433Z,14.80
2023-04-18T06:13:55.962Z,16.95
2023-04-18T06:16:22.418Z,14.73
2023-04-18T06:18:48.958Z,14.27
2023-04-18T06:21:15.273Z,16.20
2023-04-18T06:23:41.620Z,15.68
2023-04-18T06:26:08.917Z,16.42
2023-04-18T06:28:35.534Z,14.50
2023-04-18T06:31:01.809Z,14.75
2023-04-18T06:33:28.428Z,13.95
2023-04-18T06:35:55.006Z,13.70
2023-04-18T06:38:21.335Z,13.32
2023-04-18T06:40:47.683Z,13.07
2023-04-18T06:43:14.084Z,14.57
2023-04-18T06:45:40.438Z,15.30
2023-04-18T06:48:08.827Z,14.48
2023-04-18T06:50:35.204Z,16.60
2023-04-18T06:53:02.144Z,14.50
2023-04-18T06:55:28.472Z,12.80
2023-04-18T06:57:54.835Z,15.38
2023-04-18T07:00:21.289Z,14.18
2023-04-18T07:02:47.989Z,12.07
2023-04-18T07:05:14.540Z,13.80
2023-04-18T07:07:40.926Z,11.48
2023-04-18T07:10:09.470Z,14.82
2023-04-18T07:12:36.015Z,12.52
2023-04-18T07:15:03.530Z,13.70
2023-04-18T07:17:29.863Z,12.25
2023-04-18T07:19:56.194Z,13.80
2023-04-18T07:22:22.475Z,11.48
2023-04-18T07:24:48.860Z,12.13
2023-04-18T07:27:15.214Z,13.40
2023-04-18T07:29:41.644Z,12.95
2023-04-18T07:32:08.637Z,14.55
2023-04-18T07:34:36.135Z,15.52
2023-04-18T07:37:02.765Z,11.85
2023-04-18T07:39:29.288Z,12.98
2023-04-18T07:41:55.636Z,13.10
2023-04-18T07:44:21.933Z,13.73
2023-04-18T07:46:48.325Z,14.43
2023-04-18T07:49:15.103Z,11.52
2023-04-18T07:51:41.640Z,13.00
2023-04-18T07:54:08.005Z,10.40
2023-04-18T07:56:34.570Z,12.15
2023-04-18T07:59:01.680Z,8.90
2023-04-18T08:01:28.097Z,9.57
2023-04-18T08:03:56.572Z,10.48
2023-04-18T08:06:23.114Z,11.07
2023-04-18T08:08:49.373Z,10.55
2023-04-18T08:11:15.796Z,9.15
2023-04-18T08:13:42.110Z,8.95
2023-04-18T08:16:08.605Z,10.32
2023-04-18T08:18:36.449Z,12.95
2023-04-18T08:21:03.208Z,10.32
2023-04-18T08:23:29.676Z,10.63
2023-04-18T08:25:56.022Z,9.52
2023-04-18T08:28:22.400Z,10.68
2023-04-18T08:30:49.177Z,10.23
2023-04-18T08:33:18.198Z,11.32
2023-04-18T08:35:44.616Z,10.63
2023-04-18T08:38:13.508Z,10.15
2023-04-18T08:40:39.880Z,9.43
2023-04-18T08:43:09.362Z,11.63
2023-04-18T08:45:36.872Z,8.40
2023-04-18T08:48:03.922Z,9.27
2023-04-18T08:50:30.715Z,9.25
2023-04-18T09:00:20.479Z,9.20
2023-04-18T09:02:47.295Z,7.95
2023-04-18T09:05:14.812Z,8.48
2023-04-18T09:07:42.017Z,8.02
2023-04-18T09:10:09.888Z,8.05
2023-04-18T09:12:50.523Z,7.97
2023-04-18T09:15:20.183Z,11.95
2023-04-18T09:17:50.769Z,7.10
2023-04-18T09:20:30.575Z,7.72
2023-04-18T09:22:58.053Z,7.50
2023-04-18T09:25:29.370Z,8.05
2023-04-18T09:28:00.640Z,7.43
2023-04-18T09:30:30.286Z,7.93
2023-04-18T09:32:57.991Z,6.82
2023-04-18T09:35:25.341Z,6.07
2023-04-18T09:37:51.843Z,10.00
2023-04-18T09:40:19.200Z,9.48
2023-04-18T09:42:46.405Z,7.60
2023-04-18T09:45:18.475Z,8.02
2023-04-18T09:47:45.059Z,9.48
2023-04-18T09:55:08.564Z,9.00
2023-04-18T09:57:35.635Z,7.50
2023-04-18T10:00:13.377Z,6.65
2023-04-18T10:02:49.110Z,7.30
2023-04-18T10:05:17.594Z,6.65
2023-04-18T10:07:46.111Z,7.30
2023-04-18T10:10:13.140Z,8.18
2023-04-18T10:12:40.432Z,9.77
2023-04-18T10:15:07.582Z,9.35
2023-04-18T10:17:52.497Z,6.95
2023-04-18T10:20:30.806Z,7.63
2023-04-18T10:22:58.285Z,8.55
2023-04-18T10:25:33.745Z,8.90
2023-04-18T10:28:01.532Z,7.50
2023-04-18T10:30:40.143Z,6.10
2023-04-18T10:33:30.794Z,5.68
2023-04-18T10:36:10.179Z,6.47
2023-04-18T10:38:45.067Z,8.15
2023-04-18T10:41:12.872Z,6.47
2023-04-18T10:43:57.748Z,9.40
2023-04-18T10:46:31.184Z,7.40
2023-04-18T10:49:17.501Z,7.97
2023-04-18T10:51:47.651Z,10.30
2023-04-18T10:54:19.843Z,7.75
2023-04-18T10:56:53.045Z,7.13
2023-04-18T10:59:20.957Z,7.57
2023-04-18T11:01:49.143Z,6.30
2023-04-18T11:04:16.711Z,6.40
2023-04-18T11:06:55.858Z,9.25
2023-04-18T11:09:22.642Z,6.82
2023-04-18T11:12:04.556Z,6.63
2023-04-18T11:14:43.488Z,7.57
2023-04-18T11:17:18.913Z,7.80
2023-04-18T11:19:46.044Z,7.20
2023-04-18T11:22:12.753Z,11.23
2023-04-18T11:24:39.237Z,7.90
2023-04-18T11:27:05.827Z,9.70
2023-04-18T11:31:58.857Z,7.13
2023-04-18T11:34:29.374Z,7.75
2023-04-18T11:36:55.982Z,8.40
2023-04-18T11:39:22.700Z,8.88
2023-04-18T11:41:52.271Z,8.52
2023-04-18T11:44:23.014Z,8.50
2023-04-18T11:46:51.207Z,11.10
2023-04-18T11:49:30.709Z,12.88
2023-04-18T11:51:57.440Z,9.25
2023-04-18T11:54:53.395Z,9.52
2023-04-18T11:57:19.876Z,8.68
2023-04-18T12:04:50.001Z,10.43
2023-04-18T12:07:29.160Z,10.57
2023-04-18T12:09:59.318Z,10.30
2023-04-18T12:12:26.041Z,9.25
2023-04-18T12:15:18.832Z,10.60
2023-04-18T12:17:45.935Z,10.27
2023-04-18T12:20:13.499Z,13.00
2023-04-18T12:22:49.490Z,10.73
2023-04-18T12:25:22.797Z,11.25
2023-04-18T12:27:58.082Z,13.30
2023-04-18T12:30:25.975Z,14.35
2023-04-18T12:32:54.058Z,14.52
2023-04-18T12:35:20.863Z,14.50
2023-04-18T12:37:47.822Z,12.32
2023-04-18T12:40:14.513Z,12.57
2023-04-18T12:42:41.645Z,11.10
2023-04-18T12:45:11.737Z,12.48
2023-04-18T12:47:39.168Z,12.07
2023-04-18T12:50:06.864Z,12.88
2023-04-18T12:52:33.514Z,12.65
2023-04-18T12:57:26.375Z,13.18
2023-04-18T12:59:52.814Z,11.80
2023-04-18T13:02:19.389Z,11.50
2023-04-18T13:07:12.333Z,12.68
2023-04-18T13:09:38.628Z,11.90
2023-04-18T13:12:05.219Z,15.77
2023-04-18T13:19:24.195Z,11.88
2023-04-18T13:21:50.883Z,12.95
2023-04-18T13:24:17.894Z,13.05
2023-04-18T13:26:44.295Z,16.27
2023-04-18T13:29:10.668Z,14.77
2023-04-18T13:31:37.157Z,12.77
2023-04-18T13:38:56.122Z,12.63
2023-04-18T13:41:22.490Z,16.83
2023-04-18T13:43:48.771Z,14.35
2023-04-18T13:46:15.200Z,15.93
2023-04-18T13:48:41.504Z,14.25
2023-04-18T13:51:07.922Z,18.50
2023-04-18T13:53:34.254Z,13.77
2023-04-18T13:56:01.629Z,14.35
2023-04-18T13:58:27.927Z,15.15
2023-04-18T14:00:54.256Z,13.65
2023-04-18T14:03:21.098Z,17.33
2023-04-18T14:05:47.555Z,14.77
2023-04-18T14:08:14.207Z,17.35
2023-04-18T14:10:40.697Z,15.48
2023-04-18T14:13:07.172Z,13.18
2023-04-18T14:15:33.568Z,16.20
2023-04-18T14:18:00.900Z,13.95
2023-04-18T14:20:34.068Z,15.38
2023-04-18T14:23:03.184Z,17.13
2023-04-18T14:25:30.022Z,14.00
2023-04-18T14:28:08.931Z,14.55
2023-04-18T14:30:35.873Z,14.02
2023-04-18T14:33:02.323Z,13.07
2023-04-18T14:37:55.084Z,13.07
2023-04-18T14:40:22.297Z,16.80
2023-04-18T14:42:48.812Z,12.48
2023-04-18T14:47:45.683Z,14.68
2023-04-18T14:50:12.122Z,13.13
2023-04-18T14:55:06.836Z,14.15
2023-04-18T14:57:36.844Z,10.98
2023-04-18T15:00:05.399Z,11.95
2023-04-18T15:02:31.942Z,12.40
2023-04-18T15:04:58.858Z,12.73
2023-04-18T15:07:25.361Z,15.52
2023-04-18T15:12:18.057Z,13.90
2023-04-18T15:17:10.731Z,13.20
2023-04-18T15:19:37.072Z,14.30
2023-04-18T15:22:03.589Z,14.25
2023-04-18T15:24:30.114Z,14.00
2023-04-18T15:29:23.707Z,13.68
2023-04-18T15:31:50.045Z,12.10
2023-04-18T15:34:17.022Z,12.32
2023-04-18T15:36:43.595Z,13.73
2023-04-18T15:39:10.596Z,14.57
2023-04-18T15:41:36.985Z,17.77
2023-04-18T15:44:04.312Z,12.95
2023-04-18T15:46:31.994Z,16.83
2023-04-18T15:56:17.751Z,12.55
2023-04-18T15:58:44.162Z,13.05
2023-04-18T16:01:11.916Z,14.95
2023-04-18T16:03:38.645Z,16.65
2023-04-18T16:06:05.307Z,12.98
2023-04-18T16:10:59.673Z,13.60
2023-04-18T16:13:25.974Z,13.63
2023-04-18T16:15:52.385Z,13.40
2023-04-18T16:18:18.815Z,11.23
2023-04-18T16:20:45.280Z,12.82
2023-04-18T16:23:11.715Z,12.02
2023-04-18T16:25:38.049Z,12.32
2023-04-18T16:28:04.506Z,14.82
2023-04-18T16:30:31.203Z,11.32
2023-04-18T16:32:57.587Z,11.50
2023-04-18T16:37:50.560Z,12.60
2023-04-18T16:47:36.059Z,11.73
2023-04-18T16:50:02.480Z,11.48
2023-04-18T16:52:28.859Z,10.65
2023-04-18T16:54:55.191Z,9.90
2023-04-18T16:57:21.563Z,13.15
2023-04-18T16:59:47.921Z,13.10
2023-04-18T17:02:14.601Z,12.80
2023-04-18T17:04:41.004Z,11.00
2023-04-18T17:07:07.500Z,10.35
2023-04-18T17:09:33.876Z,9.80
2023-04-18T17:12:00.196Z,10.65
2023-04-18T17:14:26.717Z,10.15
2023-04-18T17:19:20.355Z,11.60
2023-04-18T17:24:14.553Z,10.68
2023-04-18T17:26:41.098Z,11.18
2023-04-18T17:29:07.568Z,12.50
2023-04-18T17:31:34.443Z,9.90
2023-04-18T17:34:01.071Z,11.68
2023-04-18T17:36:27.680Z,11.80
2023-04-18T17:41:21.476Z,10.63
2023-04-18T17:43:48.401Z,12.38
2023-04-18T17:46:14.912Z,13.05
2023-04-18T17:48:41.454Z,17.42
2023-04-18T17:51:07.847Z,10.27
2023-04-18T17:53:34.236Z,9.85
2023-04-18T17:56:00.764Z,11.15
2023-04-18T18:08:12.488Z,11.95
2023-04-18T18:10:39.164Z,11.80
2023-04-18T18:17:59.896Z,11.07
2023-04-18T18:20:27.348Z,11.05
2023-04-18T18:22:59.428Z,12.35
2023-04-18T18:25:25.792Z,16.00
2023-04-18T18:27:54.426Z,11.13
2023-04-18T18:30:20.823Z,12.98
2023-04-18T18:32:47.306Z,13.68
2023-04-18T18:35:13.860Z,12.65
2023-04-18T18:37:40.955Z,14.70
2023-04-18T18:40:08.168Z,12.65
2023-04-18T18:42:34.499Z,11.68
2023-04-18T18:45:01.601Z,12.60
2023-04-18T18:47:28.194Z,13.48
2023-04-18T18:52:22.169Z,14.75
2023-04-18T18:54:51.330Z,12.63
2023-04-18T18:57:17.704Z,13.70
2023-04-18T18:59:44.022Z,11.77
2023-04-18T19:02:10.495Z,13.52
2023-04-18T19:09:31.508Z,11.90
2023-04-18T19:11:58.351Z,12.95
2023-04-18T19:14:24.710Z,12.77
2023-04-18T19:16:51.044Z,11.35
2023-04-18T19:19:17.487Z,13.13
2023-04-18T19:21:45.919Z,11.45
2023-04-18T19:24:12.797Z,15.40
2023-04-18T19:26:39.181Z,10.55
2023-04-18T19:29:09.861Z,12.90
2023-04-18T19:31:36.360Z,10.25
2023-04-18T19:34:02.733Z,10.77
2023-04-18T19:36:30.245Z,13.27
2023-04-18T19:38:56.604Z,12.90
2023-04-18T19:41:24.066Z,11.50
2023-04-18T19:43:50.468Z,11.75
2023-04-18T19:46:16.948Z,12.85
2023-04-18T19:48:43.292Z,12.25
2023-04-18T19:51:12.461Z,11.43
2023-04-18T19:53:38.908Z,10.80
2023-04-18T19:56:05.219Z,10.30
2023-04-18T19:58:44.917Z,11.68
2023-04-18T20:01:14.882Z,11.18
2023-04-18T20:03:42.178Z,12.55
2023-04-18T20:06:09.150Z,16.17
2023-04-18T20:08:36.411Z,11.07
2023-04-18T20:11:04.125Z,11.63
2023-04-18T20:13:30.509Z,9.40
2023-04-18T20:15:56.909Z,11.18
2023-04-18T20:18:26.217Z,12.02
2023-04-18T20:20:52.524Z,10.80
2023-04-18T20:23:18.827Z,13.18
2023-04-18T20:25:45.230Z,12.50
2023-04-18T20:28:11.740Z,9.48
2023-04-18T20:30:38.072Z,9.07
2023-04-18T20:33:04.431Z,27.73
2023-04-18T20:35:31.428Z,9.55
2023-04-18T20:38:00.251Z,10.32
2023-04-18T20:40:27.168Z,9.30
2023-04-18T20:42:55.270Z,12.23
2023-04-18T20:45:22.773Z,8.85
2023-04-18T20:47:49.158Z,11.45
2023-04-18T20:50:18.027Z,11.27
2023-04-18T20:52:44.458Z,10.55
2023-04-18T20:55:13.893Z,10.32
2023-04-18T20:57:40.244Z,9.07
2023-04-18T21:00:07.165Z,11.02
2023-04-18T21:02:33.605Z,11.82
2023-04-18T21:07:26.469Z,11.05
2023-04-18T21:09:52.898Z,11.05
2023-04-18T21:12:19.243Z,10.50
2023-04-18T21:14:45.606Z,10.15
2023-04-18T21:17:16.927Z,11.13
2023-04-18T21:19:46.929Z,9.10
2023-04-18T21:22:14.028Z,11.15
2023-04-18T21:24:40.502Z,10.52
2023-04-18T21:27:07.204Z,10.23
2023-04-18T21:32:00.032Z,10.20
2023-04-18T21:36:52.771Z,9.85
2023-04-18T21:39:19.128Z,17.85
2023-04-18T21:41:45.437Z,9.68
2023-04-18T21:44:14.346Z,8.40
2023-04-18T21:49:07.144Z,10.32
2023-04-18T21:51:33.509Z,11.88
2023-04-18T21:53:59.838Z,10.88
2023-04-18T21:56:26.738Z,11.85
2023-04-18T21:58:53.068Z,11.30
2023-04-18T22:01:19.478Z,10.30
2023-04-18T22:03:46.269Z,12.20
2023-04-18T22:06:13.195Z,10.50
2023-04-18T22:11:05.817Z,9.77
2023-04-18T22:13:33.020Z,9.18
2023-04-18T22:16:02.064Z,10.32
2023-04-18T22:18:30.554Z,8.32
2023-04-18T22:20:56.910Z,10.23
2023-04-18T22:23:23.282Z,11.13
2023-04-18T22:25:49.639Z,9.45
2023-04-18T22:28:16.045Z,10.48
2023-04-18T22:30:42.461Z,9.15
2023-04-18T22:33:08.800Z,9.32
2023-04-18T22:35:35.228Z,11.82
2023-04-18T22:38:01.591Z,10.07
2023-04-18T22:40:27.944Z,10.73
2023-04-18T22:42:54.404Z,10.10
2023-04-18T22:45:20.832Z,9.93
2023-04-18T22:47:47.244Z,9.32
2023-04-18T22:50:14.265Z,10.15
2023-04-18T22:52:41.130Z,9.15
2023-04-18T22:55:08.150Z,11.13
2023-04-18T22:57:34.518Z,8.75
2023-04-18T23:00:00.923Z,12.95
2023-04-18T23:02:27.553Z,10.82
2023-04-18T23:09:46.714Z,10.82
2023-04-18T23:12:13.061Z,11.45
2023-04-18T23:14:41.775Z,10.32
2023-04-18T23:17:08.343Z,9.95
2023-04-18T23:19:34.912Z,11.93
2023-04-18T23:22:01.263Z,10.07
2023-04-18T23:24:27.684Z,10.27
2023-04-18T23:26:54.033Z,9.57
2023-04-18T23:29:20.394Z,10.30
2023-04-18T23:31:46.764Z,10.85
2023-04-18T23:34:13.593Z,10.90
2023-04-18T23:36:40.524Z,11.70
2023-04-18T23:41:34.739Z,11.70
2023-04-18T23:44:01.115Z,12.10
2023-04-18T23:46:27.547Z,14.07
2023-04-18T23:48:53.901Z,11.85
2023-04-18T23:51:20.285Z,11.18
2023-04-18T23:53:46.638Z,11.15
2023-04-18T23:56:12.941Z,11.80
2023-04-18T23:58:39.241Z,11.95
